sensor_id;sensor_type;location;lat;lon;timestamp;P1;durP1;ratioP1;P2;durP2;ratioP2
54823;SDS011;40724;53.196;5.980;2023-11-19T00:00:49;8.50;;;4.95;;
54823;SDS011;40724;53.196;5.980;2023-11-19T00:03:16;13.60;;;5.15;;
54823;SDS011;40724;53.196;5.980;2023-11-19T00:05:43;12.25;;;4.70;;
54823;SDS011;40724;53.196;5.980;2023-11-19T00:08:09;11.98;;;4.68;;
54823;SDS011;40724;53.196;5.980;2023-11-19T00:10:35;11.68;;;5.70;;
54823;SDS011;40724;53.196;5.980;2023-11-19T00:13:01;12.93;;;4.65;;
54823;SDS011;40724;53.196;5.980;2023-11-19T00:15:27;11.43;;;4.65;;
54823;SDS011;40724;53.196;5.980;2023-11-19T00:17:53;15.80;;;5.15;;
54823;SDS011;40724;53.196;5.980;2023-11-19T00:20:19;9.52;;;4.05;;
54823;SDS011;40724;53.196;5.980;2023-11-19T00:22:47;10.15;;;4.78;;
54823;SDS011;40724;53.196;5.980;2023-11-19T00:25:16;11.10;;;5.03;;
54823;SDS011;40724;53.196;5.980;2023-11-19T00:27:42;8.18;;;3.90;;
54823;SDS011;40724;53.196;5.980;2023-11-19T00:30:11;9.13;;;4.97;;
54823;SDS011;40724;53.196;5.980;2023-11-19T00:32:38;9.45;;;3.83;;
54823;SDS011;40724;53.196;5.980;2023-11-19T00:35:07;15.38;;;5.07;;
54823;SDS011;40724;53.196;5.980;2023-11-19T00:37:35;13.73;;;5.00;;
54823;SDS011;40724;53.196;5.980;2023-11-19T00:40:01;8.23;;;4.78;;
54823;SDS011;40724;53.196;5.980;2023-11-19T00:42:30;7.30;;;4.68;;
54823;SDS011;40724;53.196;5.980;2023-11-19T00:44:56;12.93;;;5.63;;
54823;SDS011;40724;53.196;5.980;2023-11-19T00:47:23;16.70;;;5.70;;
54823;SDS011;40724;53.196;5.980;2023-11-19T00:49:49;10.93;;;5.18;;
54823;SDS011;40724;53.196;5.980;2023-11-19T00:52:18;14.50;;;4.47;;
54823;SDS011;40724;53.196;5.980;2023-11-19T00:54:43;13.77;;;4.20;;
54823;SDS011;40724;53.196;5.980;2023-11-19T00:57:09;11.68;;;5.35;;
54823;SDS011;40724;53.196;5.980;2023-11-19T00:59:35;8.85;;;4.68;;
54823;SDS011;40724;53.196;5.980;2023-11-19T01:02:01;11.32;;;4.28;;
54823;SDS011;40724;53.196;5.980;2023-11-19T01:04:34;11.43;;;4.53;;
54823;SDS011;40724;53.196;5.980;2023-11-19T01:07:03;14.30;;;4.88;;
54823;SDS011;40724;53.196;5.980;2023-11-19T01:09:30;14.40;;;5.13;;
54823;SDS011;40724;53.196;5.980;2023-11-19T01:12:00;13.55;;;5.13;;
54823;SDS011;40724;53.196;5.980;2023-11-19T01:14:26;10.63;;;4.53;;
54823;SDS011;40724;53.196;5.980;2023-11-19T01:16:52;12.35;;;4.80;;
54823;SDS011;40724;53.196;5.980;2023-11-19T01:19:21;23.23;;;6.70;;
54823;SDS011;40724;53.196;5.980;2023-11-19T01:21:48;12.15;;;5.38;;
54823;SDS011;40724;53.196;5.980;2023-11-19T01:24:14;11.45;;;5.22;;
54823;SDS011;40724;53.196;5.980;2023-11-19T01:26:41;11.05;;;4.30;;
54823;SDS011;40724;53.196;5.980;2023-11-19T01:29:12;21.33;;;5.78;;
54823;SDS011;40724;53.196;5.980;2023-11-19T01:31:40;15.38;;;4.78;;
54823;SDS011;40724;53.196;5.980;2023-11-19T01:34:06;12.52;;;4.07;;
54823;SDS011;40724;53.196;5.980;2023-11-19T01:36:32;13.10;;;5.30;;
54823;SDS011;40724;53.196;5.980;2023-11-19T01:39:03;14.90;;;4.82;;
54823;SDS011;40724;53.196;5.980;2023-11-19T01:41:33;17.65;;;5.43;;
54823;SDS011;40724;53.196;5.980;2023-11-19T01:44:02;15.38;;;5.10;;
54823;SDS011;40724;53.196;5.980;2023-11-19T01:46:28;9.32;;;4.40;;
54823;SDS011;40724;53.196;5.980;2023-11-19T01:48:55;13.52;;;5.43;;
54823;SDS011;40724;53.196;5.980;2023-11-19T01:51:21;14.48;;;4.85;;
54823;SDS011;40724;53.196;5.980;2023-11-19T01:53:48;16.33;;;4.35;;
54823;SDS011;40724;53.196;5.980;2023-11-19T01:56:16;16.38;;;5.13;;
54823;SDS011;40724;53.196;5.980;2023-11-19T01:58:43;11.30;;;5.15;;
54823;SDS011;40724;53.196;5.980;2023-11-19T02:01:10;14.25;;;4.60;;
54823;SDS011;40724;53.196;5.980;2023-11-19T02:03:37;13.52;;;6.22;;
54823;SDS011;40724;53.196;5.980;2023-11-19T02:06:03;14.38;;;5.05;;
54823;SDS011;40724;53.196;5.980;2023-11-19T02:08:30;19.17;;;5.65;;
54823;SDS011;40724;53.196;5.980;2023-11-19T02:10:56;12.55;;;4.85;;
54823;SDS011;40724;53.196;5.980;2023-11-19T02:13:22;17.08;;;5.25;;
54823;SDS011;40724;53.196;5.980;2023-11-19T02:15:54;14.73;;;6.53;;
54823;SDS011;40724;53.196;5.980;2023-11-19T02:20:47;12.63;;;5.38;;
54823;SDS011;40724;53.196;5.980;2023-11-19T02:23:14;15.10;;;5.18;;
54823;SDS011;40724;53.196;5.980;2023-11-19T02:25:40;14.23;;;5.55;;
54823;SDS011;40724;53.196;5.980;2023-11-19T02:28:06;12.90;;;4.90;;
54823;SDS011;40724;53.196;5.980;2023-11-19T02:30:32;17.92;;;5.05;;
54823;SDS011;40724;53.196;5.980;2023-11-19T02:32:59;14.93;;;5.00;;
54823;SDS011;40724;53.196;5.980;2023-11-19T02:35:30;14.67;;;4.93;;
54823;SDS011;40724;53.196;5.980;2023-11-19T02:37:57;13.25;;;5.63;;
54823;SDS011;40724;53.196;5.980;2023-11-19T02:40:28;16.33;;;4.60;;
54823;SDS011;40724;53.196;5.980;2023-11-19T02:42:54;16.40;;;5.18;;
54823;SDS011;40724;53.196;5.980;2023-11-19T02:45:23;13.00;;;5.95;;
54823;SDS011;40724;53.196;5.980;2023-11-19T02:47:50;16.60;;;5.68;;
54823;SDS011;40724;53.196;5.980;2023-11-19T02:50:17;13.60;;;5.32;;
54823;SDS011;40724;53.196;5.980;2023-11-19T02:52:50;20.35;;;6.63;;
54823;SDS011;40724;53.196;5.980;2023-11-19T02:55:17;16.10;;;5.35;;
54823;SDS011;40724;53.196;5.980;2023-11-19T02:57:43;16.08;;;5.57;;
54823;SDS011;40724;53.196;5.980;2023-11-19T03:00:17;11.75;;;5.53;;
54823;SDS011;40724;53.196;5.980;2023-11-19T03:02:44;22.33;;;5.57;;
54823;SDS011;40724;53.196;5.980;2023-11-19T03:05:19;17.77;;;6.13;;
54823;SDS011;40724;53.196;5.980;2023-11-19T03:07:45;18.58;;;5.90;;
54823;SDS011;40724;53.196;5.980;2023-11-19T03:10:10;14.15;;;5.80;;
54823;SDS011;40724;53.196;5.980;2023-11-19T03:12:43;12.13;;;4.38;;
54823;SDS011;40724;53.196;5.980;2023-11-19T03:15:10;15.35;;;4.93;;
54823;SDS011;40724;53.196;5.980;2023-11-19T03:17:39;15.50;;;5.00;;
54823;SDS011;40724;53.196;5.980;2023-11-19T03:20:08;13.80;;;5.03;;
54823;SDS011;40724;53.196;5.980;2023-11-19T03:22:38;21.80;;;4.63;;
54823;SDS011;40724;53.196;5.980;2023-11-19T03:25:06;17.90;;;6.20;;
54823;SDS011;40724;53.196;5.980;2023-11-19T03:27:33;13.75;;;5.45;;
54823;SDS011;40724;53.196;5.980;2023-11-19T03:30:01;13.35;;;5.20;;
54823;SDS011;40724;53.196;5.980;2023-11-19T03:32:30;13.95;;;4.72;;
54823;SDS011;40724;53.196;5.980;2023-11-19T03:34:57;12.60;;;5.80;;
54823;SDS011;40724;53.196;5.980;2023-11-19T03:37:23;18.30;;;6.05;;
54823;SDS011;40724;53.196;5.980;2023-11-19T03:39:49;12.05;;;4.70;;
54823;SDS011;40724;53.196;5.980;2023-11-19T03:42:14;16.73;;;6.50;;
54823;SDS011;40724;53.196;5.980;2023-11-19T03:44:40;14.27;;;5.45;;
54823;SDS011;40724;53.196;5.980;2023-11-19T03:47:06;15.23;;;6.68;;
54823;SDS011;40724;53.196;5.980;2023-11-19T03:49:32;19.98;;;6.40;;
54823;SDS011;40724;53.196;5.980;2023-11-19T03:51:57;15.18;;;6.35;;
54823;SDS011;40724;53.196;5.980;2023-11-19T03:54:23;14.10;;;5.28;;
54823;SDS011;40724;53.196;5.980;2023-11-19T03:56:49;21.98;;;7.07;;
54823;SDS011;40724;53.196;5.980;2023-11-19T03:59:15;14.70;;;5.95;;
54823;SDS011;40724;53.196;5.980;2023-11-19T04:01:41;23.52;;;7.40;;
54823;SDS011;40724;53.196;5.980;2023-11-19T04:04:06;20.15;;;6.68;;
54823;SDS011;40724;53.196;5.980;2023-11-19T04:06:32;18.80;;;7.95;;
54823;SDS011;40724;53.196;5.980;2023-11-19T04:08:58;15.85;;;5.70;;
54823;SDS011;40724;53.196;5.980;2023-11-19T04:11:24;21.33;;;7.53;;
54823;SDS011;40724;53.196;5.980;2023-11-19T04:13:49;17.00;;;6.45;;
54823;SDS011;40724;53.196;5.980;2023-11-19T04:16:15;27.02;;;9.38;;
54823;SDS011;40724;53.196;5.980;2023-11-19T04:18:41;14.15;;;5.60;;
54823;SDS011;40724;53.196;5.980;2023-11-19T04:21:07;17.70;;;7.53;;
54823;SDS011;40724;53.196;5.980;2023-11-19T04:23:33;30.20;;;8.38;;
54823;SDS011;40724;53.196;5.980;2023-11-19T04:26:01;19.05;;;7.22;;
54823;SDS011;40724;53.196;5.980;2023-11-19T04:28:29;24.02;;;7.45;;
54823;SDS011;40724;53.196;5.980;2023-11-19T04:30:55;17.52;;;6.80;;
54823;SDS011;40724;53.196;5.980;2023-11-19T04:33:21;21.42;;;7.47;;
54823;SDS011;40724;53.196;5.980;2023-11-19T04:35:47;21.33;;;7.13;;
54823;SDS011;40724;53.196;5.980;2023-11-19T04:38:14;23.70;;;7.47;;
54823;SDS011;40724;53.196;5.980;2023-11-19T04:40:40;20.67;;;7.97;;
54823;SDS011;40724;53.196;5.980;2023-11-19T04:43:07;15.50;;;7.93;;
54823;SDS011;40724;53.196;5.980;2023-11-19T04:45:32;23.90;;;7.75;;
54823;SDS011;40724;53.196;5.980;2023-11-19T04:47:59;21.42;;;7.38;;
54823;SDS011;40724;53.196;5.980;2023-11-19T04:50:24;19.65;;;6.53;;
54823;SDS011;40724;53.196;5.980;2023-11-19T04:52:52;22.90;;;7.65;;
54823;SDS011;40724;53.196;5.980;2023-11-19T04:55:19;17.95;;;6.53;;
54823;SDS011;40724;53.196;5.980;2023-11-19T04:57:44;25.80;;;6.90;;
54823;SDS011;40724;53.196;5.980;2023-11-19T05:00:10;17.08;;;7.30;;
54823;SDS011;40724;53.196;5.980;2023-11-19T05:02:36;20.40;;;8.18;;
54823;SDS011;40724;53.196;5.980;2023-11-19T05:05:02;15.40;;;6.45;;
54823;SDS011;40724;53.196;5.980;2023-11-19T05:07:32;21.05;;;7.00;;
54823;SDS011;40724;53.196;5.980;2023-11-19T05:09:58;24.60;;;7.55;;
54823;SDS011;40724;53.196;5.980;2023-11-19T05:12:24;25.13;;;6.68;;
54823;SDS011;40724;53.196;5.980;2023-11-19T05:14:49;23.42;;;7.95;;
54823;SDS011;40724;53.196;5.980;2023-11-19T05:17:16;26.02;;;7.03;;
54823;SDS011;40724;53.196;5.980;2023-11-19T05:19:46;25.63;;;8.20;;
54823;SDS011;40724;53.196;5.980;2023-11-19T05:22:12;20.55;;;7.13;;
54823;SDS011;40724;53.196;5.980;2023-11-19T05:24:38;20.20;;;7.55;;
54823;SDS011;40724;53.196;5.980;2023-11-19T05:27:05;24.38;;;7.60;;
54823;SDS011;40724;53.196;5.980;2023-11-19T05:29:33;15.15;;;7.25;;
54823;SDS011;40724;53.196;5.980;2023-11-19T05:31:59;20.80;;;7.72;;
54823;SDS011;40724;53.196;5.980;2023-11-19T05:34:25;27.27;;;9.77;;
54823;SDS011;40724;53.196;5.980;2023-11-19T05:36:51;27.48;;;7.47;;
54823;SDS011;40724;53.196;5.980;2023-11-19T05:39:17;29.23;;;8.93;;
54823;SDS011;40724;53.196;5.980;2023-11-19T05:41:45;24.33;;;7.53;;
54823;SDS011;40724;53.196;5.980;2023-11-19T05:44:11;26.85;;;9.40;;
54823;SDS011;40724;53.196;5.980;2023-11-19T05:46:37;32.47;;;10.40;;
54823;SDS011;40724;53.196;5.980;2023-11-19T05:49:07;22.38;;;7.97;;
54823;SDS011;40724;53.196;5.980;2023-11-19T05:51:36;23.60;;;10.48;;
54823;SDS011;40724;53.196;5.980;2023-11-19T05:54:08;29.58;;;9.00;;
54823;SDS011;40724;53.196;5.980;2023-11-19T05:56:35;26.05;;;8.23;;
54823;SDS011;40724;53.196;5.980;2023-11-19T05:59:01;22.45;;;9.48;;
54823;SDS011;40724;53.196;5.980;2023-11-19T06:01:29;26.17;;;7.93;;
54823;SDS011;40724;53.196;5.980;2023-11-19T06:03:55;22.10;;;8.48;;
54823;SDS011;40724;53.196;5.980;2023-11-19T06:06:21;24.98;;;8.13;;
54823;SDS011;40724;53.196;5.980;2023-11-19T06:08:46;24.08;;;8.25;;
54823;SDS011;40724;53.196;5.980;2023-11-19T06:11:12;20.35;;;7.22;;
54823;SDS011;40724;53.196;5.980;2023-11-19T06:13:43;27.40;;;9.65;;
54823;SDS011;40724;53.196;5.980;2023-11-19T06:16:09;19.38;;;8.85;;
54823;SDS011;40724;53.196;5.980;2023-11-19T06:18:38;26.73;;;9.18;;
54823;SDS011;40724;53.196;5.980;2023-11-19T06:21:04;28.80;;;9.07;;
54823;SDS011;40724;53.196;5.980;2023-11-19T06:23:30;32.00;;;9.95;;
54823;SDS011;40724;53.196;5.980;2023-11-19T06:25:56;13.68;;;6.53;;
54823;SDS011;40724;53.196;5.980;2023-11-19T06:28:22;36.30;;;10.05;;
54823;SDS011;40724;53.196;5.980;2023-11-19T06:30:48;27.90;;;8.18;;
54823;SDS011;40724;53.196;5.980;2023-11-19T06:33:13;29.40;;;8.88;;
54823;SDS011;40724;53.196;5.980;2023-11-19T06:35:40;27.60;;;9.75;;
54823;SDS011;40724;53.196;5.980;2023-11-19T06:38:05;28.85;;;8.63;;
54823;SDS011;40724;53.196;5.980;2023-11-19T06:40:32;25.55;;;8.95;;
54823;SDS011;40724;53.196;5.980;2023-11-19T06:42:58;39.60;;;10.32;;
54823;SDS011;40724;53.196;5.980;2023-11-19T06:45:24;20.30;;;8.90;;
54823;SDS011;40724;53.196;5.980;2023-11-19T06:47:49;28.15;;;9.40;;
54823;SDS011;40724;53.196;5.980;2023-11-19T06:50:16;36.03;;;9.38;;
54823;SDS011;40724;53.196;5.980;2023-11-19T06:52:43;21.45;;;9.05;;
54823;SDS011;40724;53.196;5.980;2023-11-19T06:55:08;30.20;;;9.45;;
54823;SDS011;40724;53.196;5.980;2023-11-19T06:57:34;24.20;;;8.80;;
54823;SDS011;40724;53.196;5.980;2023-11-19T07:00:01;25.60;;;9.20;;
54823;SDS011;40724;53.196;5.980;2023-11-19T07:02:28;23.92;;;8.85;;
54823;SDS011;40724;53.196;5.980;2023-11-19T07:04:53;27.30;;;8.40;;
54823;SDS011;40724;53.196;5.980;2023-11-19T07:07:19;20.33;;;8.60;;
54823;SDS011;40724;53.196;5.980;2023-11-19T07:09:45;30.80;;;9.57;;
54823;SDS011;40724;53.196;5.980;2023-11-19T07:12:11;26.90;;;8.05;;
54823;SDS011;40724;53.196;5.980;2023-11-19T07:14:38;17.52;;;8.82;;
54823;SDS011;40724;53.196;5.980;2023-11-19T07:17:03;23.38;;;7.95;;
54823;SDS011;40724;53.196;5.980;2023-11-19T07:19:29;20.50;;;6.38;;
54823;SDS011;40724;53.196;5.980;2023-11-19T07:21:55;26.10;;;9.52;;
54823;SDS011;40724;53.196;5.980;2023-11-19T07:24:21;25.30;;;7.38;;
54823;SDS011;40724;53.196;5.980;2023-11-19T07:26:47;38.97;;;8.80;;
54823;SDS011;40724;53.196;5.980;2023-11-19T07:29:14;22.38;;;8.80;;
54823;SDS011;40724;53.196;5.980;2023-11-19T07:31:43;24.02;;;7.72;;
54823;SDS011;40724;53.196;5.980;2023-11-19T07:34:10;28.85;;;7.57;;
54823;SDS011;40724;53.196;5.980;2023-11-19T07:36:37;28.20;;;8.20;;
54823;SDS011;40724;53.196;5.980;2023-11-19T07:39:03;19.77;;;7.82;;
54823;SDS011;40724;53.196;5.980;2023-11-19T07:41:30;30.27;;;9.23;;
54823;SDS011;40724;53.196;5.980;2023-11-19T07:43:56;23.13;;;9.65;;
54823;SDS011;40724;53.196;5.980;2023-11-19T07:46:22;26.92;;;10.20;;
54823;SDS011;40724;53.196;5.980;2023-11-19T07:48:48;23.02;;;7.85;;
54823;SDS011;40724;53.196;5.980;2023-11-19T07:51:14;29.65;;;8.15;;
54823;SDS011;40724;53.196;5.980;2023-11-19T07:53:40;32.42;;;8.55;;
54823;SDS011;40724;53.196;5.980;2023-11-19T07:56:07;23.05;;;7.68;;
54823;SDS011;40724;53.196;5.980;2023-11-19T07:58:33;26.38;;;8.25;;
54823;SDS011;40724;53.196;5.980;2023-11-19T08:01:00;23.67;;;8.57;;
54823;SDS011;40724;53.196;5.980;2023-11-19T08:03:27;26.63;;;8.82;;
54823;SDS011;40724;53.196;5.980;2023-11-19T08:05:55;22.20;;;7.53;;
54823;SDS011;40724;53.196;5.980;2023-11-19T08:08:22;21.65;;;8.75;;
54823;SDS011;40724;53.196;5.980;2023-11-19T08:10:48;43.40;;;9.38;;
54823;SDS011;40724;53.196;5.980;2023-11-19T08:13:14;18.67;;;7.15;;
54823;SDS011;40724;53.196;5.980;2023-11-19T08:15:40;28.30;;;9.05;;
54823;SDS011;40724;53.196;5.980;2023-11-19T08:18:06;25.10;;;7.05;;
54823;SDS011;40724;53.196;5.980;2023-11-19T08:20:32;24.58;;;7.32;;
54823;SDS011;40724;53.196;5.980;2023-11-19T08:22:58;31.05;;;8.63;;
54823;SDS011;40724;53.196;5.980;2023-11-19T08:25:24;18.48;;;7.85;;
54823;SDS011;40724;53.196;5.980;2023-11-19T08:27:50;18.98;;;6.95;;
54823;SDS011;40724;53.196;5.980;2023-11-19T08:30:16;17.27;;;7.45;;
54823;SDS011;40724;53.196;5.980;2023-11-19T08:32:41;25.08;;;8.38;;
54823;SDS011;40724;53.196;5.980;2023-11-19T08:35:07;29.52;;;8.00;;
54823;SDS011;40724;53.196;5.980;2023-11-19T08:37:34;21.55;;;6.65;;
54823;SDS011;40724;53.196;5.980;2023-11-19T08:40:01;21.30;;;7.75;;
54823;SDS011;40724;53.196;5.980;2023-11-19T08:42:28;19.75;;;8.00;;
54823;SDS011;40724;53.196;5.980;2023-11-19T08:44:54;25.70;;;8.52;;
54823;SDS011;40724;53.196;5.980;2023-11-19T08:47:20;19.17;;;7.15;;
54823;SDS011;40724;53.196;5.980;2023-11-19T08:49:47;22.65;;;8.27;;
54823;SDS011;40724;53.196;5.980;2023-11-19T08:52:16;21.85;;;7.57;;
54823;SDS011;40724;53.196;5.980;2023-11-19T08:54:43;17.55;;;5.82;;
54823;SDS011;40724;53.196;5.980;2023-11-19T08:57:09;28.50;;;9.00;;
54823;SDS011;40724;53.196;5.980;2023-11-19T08:59:35;24.42;;;7.50;;
54823;SDS011;40724;53.196;5.980;2023-11-19T09:02:03;17.95;;;6.90;;
54823;SDS011;40724;53.196;5.980;2023-11-19T09:04:29;18.45;;;6.65;;
54823;SDS011;40724;53.196;5.980;2023-11-19T09:06:57;20.60;;;8.05;;
54823;SDS011;40724;53.196;5.980;2023-11-19T09:09:23;17.98;;;6.43;;
54823;SDS011;40724;53.196;5.980;2023-11-19T09:11:48;17.60;;;6.57;;
54823;SDS011;40724;53.196;5.980;2023-11-19T09:14:14;19.85;;;7.90;;
54823;SDS011;40724;53.196;5.980;2023-11-19T09:16:40;23.42;;;6.90;;
54823;SDS011;40724;53.196;5.980;2023-11-19T09:19:06;20.80;;;8.40;;
54823;SDS011;40724;53.196;5.980;2023-11-19T09:21:32;22.70;;;7.20;;
54823;SDS011;40724;53.196;5.980;2023-11-19T09:23:59;23.48;;;9.32;;
54823;SDS011;40724;53.196;5.980;2023-11-19T09:26:25;18.67;;;8.50;;
54823;SDS011;40724;53.196;5.980;2023-11-19T09:28:51;20.52;;;7.65;;
54823;SDS011;40724;53.196;5.980;2023-11-19T09:31:17;21.45;;;7.80;;
54823;SDS011;40724;53.196;5.980;2023-11-19T09:33:44;18.80;;;6.55;;
54823;SDS011;40724;53.196;5.980;2023-11-19T09:36:11;21.80;;;7.68;;
54823;SDS011;40724;53.196;5.980;2023-11-19T09:38:39;22.20;;;7.63;;
54823;SDS011;40724;53.196;5.980;2023-11-19T09:41:05;28.13;;;8.52;;
54823;SDS011;40724;53.196;5.980;2023-11-19T09:43:33;19.42;;;7.70;;
54823;SDS011;40724;53.196;5.980;2023-11-19T09:46:01;25.88;;;7.57;;
54823;SDS011;40724;53.196;5.980;2023-11-19T09:48:32;22.88;;;8.05;;
54823;SDS011;40724;53.196;5.980;2023-11-19T09:51:00;28.20;;;7.95;;
54823;SDS011;40724;53.196;5.980;2023-11-19T09:53:27;24.77;;;7.78;;
54823;SDS011;40724;53.196;5.980;2023-11-19T09:55:53;23.33;;;8.70;;
54823;SDS011;40724;53.196;5.980;2023-11-19T09:58:20;26.75;;;8.48;;
54823;SDS011;40724;53.196;5.980;2023-11-19T10:00:46;20.45;;;7.78;;
54823;SDS011;40724;53.196;5.980;2023-11-19T10:03:13;16.85;;;7.43;;
54823;SDS011;40724;53.196;5.980;2023-11-19T10:05:39;18.42;;;7.50;;
54823;SDS011;40724;53.196;5.980;2023-11-19T10:08:06;29.17;;;7.90;;
54823;SDS011;40724;53.196;5.980;2023-11-19T10:10:33;23.23;;;8.20;;
54823;SDS011;40724;53.196;5.980;2023-11-19T10:13:00;21.65;;;7.95;;
54823;SDS011;40724;53.196;5.980;2023-11-19T10:15:26;24.10;;;6.63;;
54823;SDS011;40724;53.196;5.980;2023-11-19T10:18:01;23.10;;;6.75;;
54823;SDS011;40724;53.196;5.980;2023-11-19T10:20:26;24.65;;;8.60;;
54823;SDS011;40724;53.196;5.980;2023-11-19T10:22:55;19.40;;;6.22;;
54823;SDS011;40724;53.196;5.980;2023-11-19T10:27:48;21.33;;;7.90;;
54823;SDS011;40724;53.196;5.980;2023-11-19T10:30:25;35.15;;;8.50;;
54823;SDS011;40724;53.196;5.980;2023-11-19T10:35:51;19.42;;;7.85;;
54823;SDS011;40724;53.196;5.980;2023-11-19T10:38:19;17.08;;;7.28;;
54823;SDS011;40724;53.196;5.980;2023-11-19T10:40:45;21.08;;;7.38;;
54823;SDS011;40724;53.196;5.980;2023-11-19T10:43:10;20.50;;;7.40;;
54823;SDS011;40724;53.196;5.980;2023-11-19T10:45:37;24.17;;;7.95;;
54823;SDS011;40724;53.196;5.980;2023-11-19T10:48:04;23.50;;;8.43;;
54823;SDS011;40724;53.196;5.980;2023-11-19T10:50:36;26.20;;;8.95;;
54823;SDS011;40724;53.196;5.980;2023-11-19T10:53:03;22.38;;;7.53;;
54823;SDS011;40724;53.196;5.980;2023-11-19T10:55:30;22.85;;;6.93;;
54823;SDS011;40724;53.196;5.980;2023-11-19T10:58:04;23.77;;;6.85;;
54823;SDS011;40724;53.196;5.980;2023-11-19T11:03:12;16.25;;;6.43;;
54823;SDS011;40724;53.196;5.980;2023-11-19T11:05:42;18.02;;;6.90;;
54823;SDS011;40724;53.196;5.980;2023-11-19T11:08:09;23.40;;;7.47;;
54823;SDS011;40724;53.196;5.980;2023-11-19T11:10:39;22.30;;;6.90;;
54823;SDS011;40724;53.196;5.980;2023-11-19T11:13:07;14.05;;;6.72;;
54823;SDS011;40724;53.196;5.980;2023-11-19T11:15:33;27.42;;;7.07;;
54823;SDS011;40724;53.196;5.980;2023-11-19T11:18:01;19.45;;;7.13;;
54823;SDS011;40724;53.196;5.980;2023-11-19T11:20:31;15.48;;;6.50;;
54823;SDS011;40724;53.196;5.980;2023-11-19T11:34:44;20.20;;;6.05;;
54823;SDS011;40724;53.196;5.980;2023-11-19T11:39:35;16.60;;;7.22;;
54823;SDS011;40724;53.196;5.980;2023-11-19T11:50:10;16.23;;;6.32;;
54823;SDS011;40724;53.196;5.980;2023-11-19T11:57:57;25.95;;;6.80;;
54823;SDS011;40724;53.196;5.980;2023-11-19T12:00:26;15.60;;;5.97;;
54823;SDS011;40724;53.196;5.980;2023-11-19T12:02:57;19.17;;;6.97;;
54823;SDS011;40724;53.196;5.980;2023-11-19T12:05:25;17.05;;;6.82;;
54823;SDS011;40724;53.196;5.980;2023-11-19T12:07:54;28.98;;;7.80;;
54823;SDS011;40724;53.196;5.980;2023-11-19T12:10:24;24.42;;;6.07;;
54823;SDS011;40724;53.196;5.980;2023-11-19T12:12:53;19.02;;;7.47;;
54823;SDS011;40724;53.196;5.980;2023-11-19T12:15:19;23.08;;;6.70;;
54823;SDS011;40724;53.196;5.980;2023-11-19T12:17:50;16.90;;;7.28;;
54823;SDS011;40724;53.196;5.980;2023-11-19T12:20:17;16.15;;;6.82;;
54823;SDS011;40724;53.196;5.980;2023-11-19T12:22:44;20.38;;;6.75;;
54823;SDS011;40724;53.196;5.980;2023-11-19T12:25:10;16.75;;;6.78;;
54823;SDS011;40724;53.196;5.980;2023-11-19T12:27:39;17.02;;;6.00;;
54823;SDS011;40724;53.196;5.980;2023-11-19T12:30:05;22.23;;;6.65;;
54823;SDS011;40724;53.196;5.980;2023-11-19T12:32:38;13.75;;;6.28;;
54823;SDS011;40724;53.196;5.980;2023-11-19T12:35:05;16.70;;;5.63;;
54823;SDS011;40724;53.196;5.980;2023-11-19T12:37:31;17.58;;;6.45;;
54823;SDS011;40724;53.196;5.980;2023-11-19T12:39:58;26.33;;;7.32;;
54823;SDS011;40724;53.196;5.980;2023-11-19T12:42:36;18.13;;;5.60;;
54823;SDS011;40724;53.196;5.980;2023-11-19T12:45:04;20.63;;;6.57;;
54823;SDS011;40724;53.196;5.980;2023-11-19T12:47:30;22.92;;;6.20;;
54823;SDS011;40724;53.196;5.980;2023-11-19T12:49:56;14.98;;;5.93;;
54823;SDS011;40724;53.196;5.980;2023-11-19T12:52:23;23.40;;;7.28;;
54823;SDS011;40724;53.196;5.980;2023-11-19T12:54:49;18.73;;;6.55;;
54823;SDS011;40724;53.196;5.980;2023-11-19T12:57:16;18.92;;;6.13;;
54823;SDS011;40724;53.196;5.980;2023-11-19T12:59:54;13.05;;;6.40;;
54823;SDS011;40724;53.196;5.980;2023-11-19T13:02:21;20.35;;;7.03;;
54823;SDS011;40724;53.196;5.980;2023-11-19T13:04:48;20.58;;;7.05;;
54823;SDS011;40724;53.196;5.980;2023-11-19T13:07:20;18.65;;;6.03;;
54823;SDS011;40724;53.196;5.980;2023-11-19T13:09:46;25.33;;;7.00;;
54823;SDS011;40724;53.196;5.980;2023-11-19T13:12:12;13.80;;;5.85;;
54823;SDS011;40724;53.196;5.980;2023-11-19T13:14:39;20.40;;;6.20;;
54823;SDS011;40724;53.196;5.980;2023-11-19T13:17:07;18.08;;;6.13;;
54823;SDS011;40724;53.196;5.980;2023-11-19T13:19:33;21.77;;;6.40;;
54823;SDS011;40724;53.196;5.980;2023-11-19T13:22:00;14.35;;;6.18;;
54823;SDS011;40724;53.196;5.980;2023-11-19T13:24:26;15.63;;;6.10;;
54823;SDS011;40724;53.196;5.980;2023-11-19T13:26:52;14.13;;;6.07;;
54823;SDS011;40724;53.196;5.980;2023-11-19T13:29:18;16.88;;;6.47;;
54823;SDS011;40724;53.196;5.980;2023-11-19T13:31:44;16.02;;;6.78;;
54823;SDS011;40724;53.196;5.980;2023-11-19T13:34:10;18.88;;;6.88;;
54823;SDS011;40724;53.196;5.980;2023-11-19T13:36:36;19.75;;;6.03;;
54823;SDS011;40724;53.196;5.980;2023-11-19T13:39:03;17.15;;;6.20;;
54823;SDS011;40724;53.196;5.980;2023-11-19T13:41:30;20.05;;;6.30;;
54823;SDS011;40724;53.196;5.980;2023-11-19T13:43:56;20.60;;;8.20;;
54823;SDS011;40724;53.196;5.980;2023-11-19T13:46:22;20.20;;;7.32;;
54823;SDS011;40724;53.196;5.980;2023-11-19T13:48:48;19.67;;;7.47;;
54823;SDS011;40724;53.196;5.980;2023-11-19T13:51:15;16.17;;;6.43;;
54823;SDS011;40724;53.196;5.980;2023-11-19T13:53:41;14.93;;;7.00;;
54823;SDS011;40724;53.196;5.980;2023-11-19T13:56:08;12.32;;;6.03;;
54823;SDS011;40724;53.196;5.980;2023-11-19T13:58:34;23.35;;;6.03;;
54823;SDS011;40724;53.196;5.980;2023-11-19T14:01:02;14.55;;;6.45;;
54823;SDS011;40724;53.196;5.980;2023-11-19T14:03:28;20.88;;;6.90;;
54823;SDS011;40724;53.196;5.980;2023-11-19T14:05:54;24.00;;;6.35;;
54823;SDS011;40724;53.196;5.980;2023-11-19T14:08:20;27.13;;;7.00;;
54823;SDS011;40724;53.196;5.980;2023-11-19T14:10:46;21.15;;;6.40;;
54823;SDS011;40724;53.196;5.980;2023-11-19T14:13:13;23.30;;;7.60;;
54823;SDS011;40724;53.196;5.980;2023-11-19T14:15:40;19.88;;;7.50;;
54823;SDS011;40724;53.196;5.980;2023-11-19T14:18:07;17.45;;;7.65;;
54823;SDS011;40724;53.196;5.980;2023-11-19T14:20:33;23.08;;;7.18;;
54823;SDS011;40724;53.196;5.980;2023-11-19T14:23:01;14.43;;;6.05;;
54823;SDS011;40724;53.196;5.980;2023-11-19T14:25:27;22.92;;;7.78;;
54823;SDS011;40724;53.196;5.980;2023-11-19T14:27:53;28.23;;;8.00;;
54823;SDS011;40724;53.196;5.980;2023-11-19T14:30:20;21.42;;;6.93;;
54823;SDS011;40724;53.196;5.980;2023-11-19T14:32:46;21.15;;;7.13;;
54823;SDS011;40724;53.196;5.980;2023-11-19T14:35:13;19.85;;;6.28;;
54823;SDS011;40724;53.196;5.980;2023-11-19T14:37:39;27.90;;;7.15;;
54823;SDS011;40724;53.196;5.980;2023-11-19T14:40:06;20.65;;;6.53;;
54823;SDS011;40724;53.196;5.980;2023-11-19T14:42:35;16.02;;;7.15;;
54823;SDS011;40724;53.196;5.980;2023-11-19T14:45:02;21.48;;;7.60;;
54823;SDS011;40724;53.196;5.980;2023-11-19T14:47:28;20.33;;;7.03;;
54823;SDS011;40724;53.196;5.980;2023-11-19T14:49:55;17.15;;;5.80;;
54823;SDS011;40724;53.196;5.980;2023-11-19T14:52:21;24.42;;;7.82;;
54823;SDS011;40724;53.196;5.980;2023-11-19T14:54:48;21.42;;;6.25;;
54823;SDS011;40724;53.196;5.980;2023-11-19T14:57:16;22.85;;;7.70;;
54823;SDS011;40724;53.196;5.980;2023-11-19T14:59:42;17.80;;;6.20;;
54823;SDS011;40724;53.196;5.980;2023-11-19T15:02:08;17.90;;;7.13;;
54823;SDS011;40724;53.196;5.980;2023-11-19T15:04:35;22.10;;;7.13;;
54823;SDS011;40724;53.196;5.980;2023-11-19T15:07:02;18.92;;;6.28;;
54823;SDS011;40724;53.196;5.980;2023-11-19T15:09:29;28.25;;;6.57;;
54823;SDS011;40724;53.196;5.980;2023-11-19T15:11:55;19.95;;;7.22;;